sensor_id;sensor_type;location;lat;lon;timestamp;temperature;humidity
52415;DHT22;38340;52.964;6.086;2023-02-12T00:01:45;3.20;99.90
52415;DHT22;38340;52.964;6.086;2023-02-12T00:04:11;3.20;99.90
52415;DHT22;38340;52.964;6.086;2023-02-12T00:06:37;3.20;99.90
52415;DHT22;38340;52.964;6.086;2023-02-12T00:09:04;3.20;99.90
52415;DHT22;38340;52.964;6.086;2023-02-12T00:11:30;3.20;99.90
52415;DHT22;38340;52.964;6.086;2023-02-12T00:13:57;3.30;99.90
52415;DHT22;38340;52.964;6.086;2023-02-12T00:16:25;3.40;99.90
52415;DHT22;38340;52.964;6.086;2023-02-12T00:18:52;3.40;99.90
52415;DHT22;38340;52.964;6.086;2023-02-12T00:21:19;3.40;99.90
52415;DHT22;38340;52.964;6.086;2023-02-12T00:23:44;3.40;99.90
52415;DHT22;38340;52.964;6.086;2023-02-12T00:26:13;3.40;99.90
52415;DHT22;38340;52.964;6.086;2023-02-12T00:28:39;3.40;99.90
52415;DHT22;38340;52.964;6.086;2023-02-12T00:31:10;3.40;99.90
52415;DHT22;38340;52.964;6.086;2023-02-12T00:33:36;3.30;99.90
52415;DHT22;38340;52.964;6.086;2023-02-12T00:36:02;3.30;99.90
52415;DHT22;38340;52.964;6.086;2023-02-12T00:38:27;3.20;99.90
52415;DHT22;38340;52.964;6.086;2023-02-12T00:40:53;3.20;99.90
52415;DHT22;38340;52.964;6.086;2023-02-12T00:43:19;3.10;99.90
52415;DHT22;38340;52.964;6.086;2023-02-12T00:45:45;3.00;99.90
52415;DHT22;38340;52.964;6.086;2023-02-12T00:48:11;3.00;99.90
52415;DHT22;38340;52.964;6.086;2023-02-12T00:50:37;2.90;99.90
52415;DHT22;38340;52.964;6.086;2023-02-12T00:53:03;2.80;99.90
52415;DHT22;38340;52.964;6.086;2023-02-12T00:55:28;2.80;99.90
52415;DHT22;38340;52.964;6.086;2023-02-12T00:57:57;2.80;99.90
52415;DHT22;38340;52.964;6.086;2023-02-12T01:00:23;2.80;99.90
52415;DHT22;38340;52.964;6.086;2023-02-12T01:02:48;2.80;99.90
52415;DHT22;38340;52.964;6.086;2023-02-12T01:05:14;2.80;99.90
52415;DHT22;38340;52.964;6.086;2023-02-12T01:07:40;2.80;99.90
52415;DHT22;38340;52.964;6.086;2023-02-12T01:10:06;2.80;99.90
52415;DHT22;38340;52.964;6.086;2023-02-12T01:12:32;2.80;99.90
52415;DHT22;38340;52.964;6.086;2023-02-12T01:14:58;2.80;99.90
52415;DHT22;38340;52.964;6.086;2023-02-12T01:17:24;2.90;99.90
52415;DHT22;38340;52.964;6.086;2023-02-12T01:19:50;2.90;99.90
52415;DHT22;38340;52.964;6.086;2023-02-12T01:22:15;2.90;99.90
52415;DHT22;38340;52.964;6.086;2023-02-12T01:24:42;2.90;99.90
52415;DHT22;38340;52.964;6.086;2023-02-12T01:27:07;3.00;99.90
52415;DHT22;38340;52.964;6.086;2023-02-12T01:29:33;3.00;99.90
52415;DHT22;38340;52.964;6.086;2023-02-12T01:31:59;3.00;99.90
52415;DHT22;38340;52.964;6.086;2023-02-12T01:34:24;3.00;99.90
52415;DHT22;38340;52.964;6.086;2023-02-12T01:36:50;3.00;99.90
52415;DHT22;38340;52.964;6.086;2023-02-12T01:39:15;3.00;99.90
52415;DHT22;38340;52.964;6.086;2023-02-12T01:41:43;3.00;99.90
52415;DHT22;38340;52.964;6.086;2023-02-12T01:44:10;2.90;99.90
52415;DHT22;38340;52.964;6.086;2023-02-12T01:46:36;2.90;99.90
52415;DHT22;38340;52.964;6.086;2023-02-12T01:49:05;3.00;99.90
52415;DHT22;38340;52.964;6.086;2023-02-12T01:51:32;2.90;99.90
52415;DHT22;38340;52.964;6.086;2023-02-12T01:54:02;2.90;99.90
52415;DHT22;38340;52.964;6.086;2023-02-12T01:56:29;2.90;99.90
52415;DHT22;38340;52.964;6.086;2023-02-12T01:58:56;2.90;99.90
52415;DHT22;38340;52.964;6.086;2023-02-12T02:01:26;2.90;99.90
52415;DHT22;38340;52.964;6.086;2023-02-12T02:04:07;2.90;99.90
52415;DHT22;38340;52.964;6.086;2023-02-12T02:06:39;3.00;99.90
52415;DHT22;38340;52.964;6.086;2023-02-12T02:09:07;3.00;99.90
52415;DHT22;38340;52.964;6.086;2023-02-12T02:11:33;3.00;99.90
52415;DHT22;38340;52.964;6.086;2023-02-12T02:14:18;2.90;99.90
52415;DHT22;38340;52.964;6.086;2023-02-12T02:23:16;2.60;99.90
52415;DHT22;38340;52.964;6.086;2023-02-12T02:28:57;2.60;99.90
52415;DHT22;38340;52.964;6.086;2023-02-12T02:31:42;2.60;99.90
52415;DHT22;38340;52.964;6.086;2023-02-12T02:39:42;2.80;99.90
52415;DHT22;38340;52.964;6.086;2023-02-12T02:42:27;2.80;99.90
52415;DHT22;38340;52.964;6.086;2023-02-12T02:45:18;2.90;99.90
52415;DHT22;38340;52.964;6.086;2023-02-12T02:48:11;2.90;99.90
52415;DHT22;38340;52.964;6.086;2023-02-12T02:50:41;3.00;99.90
52415;DHT22;38340;52.964;6.086;2023-02-12T02:53:19;3.00;99.90
52415;DHT22;38340;52.964;6.086;2023-02-12T02:55:50;3.10;99.90
52415;DHT22;38340;52.964;6.086;2023-02-12T02:58:20;3.10;99.90
52415;DHT22;38340;52.964;6.086;2023-02-12T03:00:59;3.20;99.90
52415;DHT22;38340;52.964;6.086;2023-02-12T03:03:33;3.30;99.90
52415;DHT22;38340;52.964;6.086;2023-02-12T03:06:42;3.30;99.90
52415;DHT22;38340;52.964;6.086;2023-02-12T03:09:11;3.30;99.90
52415;DHT22;38340;52.964;6.086;2023-02-12T03:11:38;3.20;99.90
52415;DHT22;38340;52.964;6.086;2023-02-12T03:16:48;3.20;99.90
52415;DHT22;38340;52.964;6.086;2023-02-12T03:22:09;3.20;99.90
52415;DHT22;38340;52.964;6.086;2023-02-12T03:24:42;3.20;99.90
52415;DHT22;38340;52.964;6.086;2023-02-12T03:29:56;3.20;99.90
52415;DHT22;38340;52.964;6.086;2023-02-12T03:37:42;3.30;99.90
52415;DHT22;38340;52.964;6.086;2023-02-12T03:40:18;3.30;99.90
52415;DHT22;38340;52.964;6.086;2023-02-12T03:45:46;3.30;99.90
52415;DHT22;38340;52.964;6.086;2023-02-12T03:48:35;3.30;99.90
52415;DHT22;38340;52.964;6.086;2023-02-12T03:53:35;3.20;99.90
52415;DHT22;38340;52.964;6.086;2023-02-12T03:56:06;3.20;99.90
52415;DHT22;38340;52.964;6.086;2023-02-12T03:58:36;3.20;99.90
52415;DHT22;38340;52.964;6.086;2023-02-12T04:01:03;3.20;99.90
52415;DHT22;38340;52.964;6.086;2023-02-12T04:03:30;3.20;99.90
52415;DHT22;38340;52.964;6.086;2023-02-12T04:05:56;3.20;99.90
52415;DHT22;38340;52.964;6.086;2023-02-12T04:08:22;3.20;99.90
52415;DHT22;38340;52.964;6.086;2023-02-12T04:11:05;3.20;99.90
52415;DHT22;38340;52.964;6.086;2023-02-12T04:14:01;3.20;99.90
52415;DHT22;38340;52.964;6.086;2023-02-12T04:16:39;3.20;99.90
52415;DHT22;38340;52.964;6.086;2023-02-12T04:19:09;3.20;99.90
52415;DHT22;38340;52.964;6.086;2023-02-12T04:27:28;3.20;99.90
52415;DHT22;38340;52.964;6.086;2023-02-12T04:30:13;3.20;99.90
52415;DHT22;38340;52.964;6.086;2023-02-12T04:32:47;3.30;99.90
52415;DHT22;38340;52.964;6.086;2023-02-12T04:35:21;3.30;99.90
52415;DHT22;38340;52.964;6.086;2023-02-12T04:37:56;3.30;99.90
52415;DHT22;38340;52.964;6.086;2023-02-12T04:40:23;3.30;99.90
52415;DHT22;38340;52.964;6.086;2023-02-12T04:42:51;3.30;99.90
52415;DHT22;38340;52.964;6.086;2023-02-12T04:45:27;3.30;99.90
52415;DHT22;38340;52.964;6.086;2023-02-12T04:47:53;3.30;99.90
52415;DHT22;38340;52.964;6.086;2023-02-12T04:50:18;3.30;99.90
52415;DHT22;38340;52.964;6.086;2023-02-12T04:52:44;3.30;99.90
52415;DHT22;38340;52.964;6.086;2023-02-12T04:55:10;3.30;99.90
52415;DHT22;38340;52.964;6.086;2023-02-12T04:57:36;3.40;99.90
52415;DHT22;38340;52.964;6.086;2023-02-12T05:00:03;3.30;99.90
52415;DHT22;38340;52.964;6.086;2023-02-12T05:02:30;3.30;99.90
52415;DHT22;38340;52.964;6.086;2023-02-12T05:04:57;3.40;99.90
52415;DHT22;38340;52.964;6.086;2023-02-12T05:07:23;3.40;99.90
52415;DHT22;38340;52.964;6.086;2023-02-12T05:09:48;3.50;99.90
52415;DHT22;38340;52.964;6.086;2023-02-12T05:12:14;3.40;99.90
52415;DHT22;38340;52.964;6.086;2023-02-12T05:14:39;3.50;99.90
52415;DHT22;38340;52.964;6.086;2023-02-12T05:17:05;3.50;99.90
52415;DHT22;38340;52.964;6.086;2023-02-12T05:19:31;3.50;99.90
52415;DHT22;38340;52.964;6.086;2023-02-12T05:21:56;3.50;99.90
52415;DHT22;38340;52.964;6.086;2023-02-12T05:24:22;3.50;99.90
52415;DHT22;38340;52.964;6.086;2023-02-12T05:26:49;3.50;99.90
52415;DHT22;38340;52.964;6.086;2023-02-12T05:29:15;3.50;99.90
52415;DHT22;38340;52.964;6.086;2023-02-12T05:31:40;3.60;99.90
52415;DHT22;38340;52.964;6.086;2023-02-12T05:34:07;3.60;99.90
52415;DHT22;38340;52.964;6.086;2023-02-12T05:36:34;3.60;99.90
52415;DHT22;38340;52.964;6.086;2023-02-12T05:38:59;3.60;99.90
52415;DHT22;38340;52.964;6.086;2023-02-12T05:41:26;3.60;99.90
52415;DHT22;38340;52.964;6.086;2023-02-12T05:43:52;3.70;99.90
52415;DHT22;38340;52.964;6.086;2023-02-12T05:46:19;3.60;99.90
52415;DHT22;38340;52.964;6.086;2023-02-12T05:48:46;3.60;99.90
52415;DHT22;38340;52.964;6.086;2023-02-12T05:51:17;3.70;99.90
52415;DHT22;38340;52.964;6.086;2023-02-12T05:53:44;3.70;99.90
52415;DHT22;38340;52.964;6.086;2023-02-12T05:56:14;3.70;99.90
52415;DHT22;38340;52.964;6.086;2023-02-12T05:58:42;3.70;99.90
52415;DHT22;38340;52.964;6.086;2023-02-12T06:01:15;3.70;99.90
52415;DHT22;38340;52.964;6.086;2023-02-12T06:03:41;3.80;99.90
52415;DHT22;38340;52.964;6.086;2023-02-12T06:06:07;3.90;99.90
52415;DHT22;38340;52.964;6.086;2023-02-12T06:08:34;3.80;99.90
52415;DHT22;38340;52.964;6.086;2023-02-12T06:11:01;3.90;99.90
52415;DHT22;38340;52.964;6.086;2023-02-12T06:13:29;3.80;99.90
52415;DHT22;38340;52.964;6.086;2023-02-12T06:15:55;3.90;99.90
52415;DHT22;38340;52.964;6.086;2023-02-12T06:18:20;4.00;99.90
52415;DHT22;38340;52.964;6.086;2023-02-12T06:20:46;3.90;99.90
52415;DHT22;38340;52.964;6.086;2023-02-12T06:23:12;4.00;99.90
52415;DHT22;38340;52.964;6.086;2023-02-12T06:25:38;4.00;99.90
52415;DHT22;38340;52.964;6.086;2023-02-12T06:28:03;4.00;99.90
52415;DHT22;38340;52.964;6.086;2023-02-12T06:30:29;4.00;99.90
52415;DHT22;38340;52.964;6.086;2023-02-12T06:32:56;4.00;99.90
52415;DHT22;38340;52.964;6.086;2023-02-12T06:35:22;4.10;99.90
52415;DHT22;38340;52.964;6.086;2023-02-12T06:37:47;4.10;99.90
52415;DHT22;38340;52.964;6.086;2023-02-12T06:40:13;4.10;99.90
52415;DHT22;38340;52.964;6.086;2023-02-12T06:42:39;4.20;99.90
52415;DHT22;38340;52.964;6.086;2023-02-12T06:45:05;4.20;99.90
52415;DHT22;38340;52.964;6.086;2023-02-12T06:47:30;4.20;99.90
52415;DHT22;38340;52.964;6.086;2023-02-12T06:49:56;4.20;99.90
52415;DHT22;38340;52.964;6.086;2023-02-12T06:52:22;4.20;99.90
52415;DHT22;38340;52.964;6.086;2023-02-12T06:54:47;4.20;99.90
52415;DHT22;38340;52.964;6.086;2023-02-12T06:57:13;4.30;99.90
52415;DHT22;38340;52.964;6.086;2023-02-12T06:59:39;4.30;99.90
52415;DHT22;38340;52.964;6.086;2023-02-12T07:02:04;4.30;99.90
52415;DHT22;38340;52.964;6.086;2023-02-12T07:04:30;4.30;99.90
52415;DHT22;38340;52.964;6.086;2023-02-12T07:06:56;4.30;99.90
52415;DHT22;38340;52.964;6.086;2023-02-12T07:09:22;4.30;99.90
52415;DHT22;38340;52.964;6.086;2023-02-12T07:11:47;4.40;99.90
52415;DHT22;38340;52.964;6.086;2023-02-12T07:14:14;4.40;99.90
52415;DHT22;38340;52.964;6.086;2023-02-12T07:16:41;4.40;99.90
52415;DHT22;38340;52.964;6.086;2023-02-12T07:19:06;4.40;99.90
52415;DHT22;38340;52.964;6.086;2023-02-12T07:21:32;4.50;99.90
52415;DHT22;38340;52.964;6.086;2023-02-12T07:23:58;4.50;99.90
52415;DHT22;38340;52.964;6.086;2023-02-12T07:26:24;4.50;99.90
52415;DHT22;38340;52.964;6.086;2023-02-12T07:28:49;4.50;99.90
52415;DHT22;38340;52.964;6.086;2023-02-12T07:31:18;4.50;99.90
52415;DHT22;38340;52.964;6.086;2023-02-12T07:33:45;4.60;99.90
52415;DHT22;38340;52.964;6.086;2023-02-12T07:36:14;4.60;99.90
52415;DHT22;38340;52.964;6.086;2023-02-12T07:38:40;4.60;99.90
52415;DHT22;38340;52.964;6.086;2023-02-12T07:43:37;4.70;99.90
52415;DHT22;38340;52.964;6.086;2023-02-12T07:46:15;4.80;99.90
52415;DHT22;38340;52.964;6.086;2023-02-12T07:48:42;4.80;99.90
52415;DHT22;38340;52.964;6.086;2023-02-12T07:51:09;4.80;99.90
52415;DHT22;38340;52.964;6.086;2023-02-12T07:53:36;4.90;99.90
52415;DHT22;38340;52.964;6.086;2023-02-12T07:56:12;5.00;99.90
52415;DHT22;38340;52.964;6.086;2023-02-12T07:58:40;5.00;99.90
52415;DHT22;38340;52.964;6.086;2023-02-12T08:01:21;5.00;99.90
52415;DHT22;38340;52.964;6.086;2023-02-12T08:03:48;5.10;99.90
52415;DHT22;38340;52.964;6.086;2023-02-12T08:06:20;5.10;99.90
52415;DHT22;38340;52.964;6.086;2023-02-12T08:08:49;5.20;99.90
52415;DHT22;38340;52.964;6.086;2023-02-12T08:11:15;5.20;99.90
52415;DHT22;38340;52.964;6.086;2023-02-12T08:13:42;5.30;99.90
52415;DHT22;38340;52.964;6.086;2023-02-12T08:16:14;5.30;99.90
52415;DHT22;38340;52.964;6.086;2023-02-12T08:18:40;5.30;99.90
52415;DHT22;38340;52.964;6.086;2023-02-12T08:21:11;5.40;99.90
52415;DHT22;38340;52.964;6.086;2023-02-12T08:23:37;5.40;99.90
52415;DHT22;38340;52.964;6.086;2023-02-12T08:28:38;5.60;99.90
52415;DHT22;38340;52.964;6.086;2023-02-12T08:31:07;5.60;99.90
52415;DHT22;38340;52.964;6.086;2023-02-12T08:33:34;5.70;99.90
52415;DHT22;38340;52.964;6.086;2023-02-12T08:36:08;5.70;99.90
52415;DHT22;38340;52.964;6.086;2023-02-12T08:38:34;5.70;99.90
52415;DHT22;38340;52.964;6.086;2023-02-12T08:41:02;5.80;99.90
52415;DHT22;38340;52.964;6.086;2023-02-12T08:43:28;5.90;99.90
52415;DHT22;38340;52.964;6.086;2023-02-12T08:45:59;5.90;99.90
52415;DHT22;38340;52.964;6.086;2023-02-12T08:48:25;6.00;99.90
52415;DHT22;38340;52.964;6.086;2023-02-12T08:50:51;6.00;99.90
52415;DHT22;38340;52.964;6.086;2023-02-12T08:53:16;6.10;99.90
52415;DHT22;38340;52.964;6.086;2023-02-12T08:55:47;6.10;99.90
52415;DHT22;38340;52.964;6.086;2023-02-12T08:58:14;6.20;99.90
52415;DHT22;38340;52.964;6.086;2023-02-12T09:00:39;6.30;99.90
52415;DHT22;38340;52.964;6.086;2023-02-12T09:03:05;6.30;99.90
52415;DHT22;38340;52.964;6.086;2023-02-12T09:05:31;6.40;99.90
52415;DHT22;38340;52.964;6.086;2023-02-12T09:07:56;6.50;99.90
52415;DHT22;38340;52.964;6.086;2023-02-12T09:10:22;6.60;99.90
52415;DHT22;38340;52.964;6.086;2023-02-12T09:12:48;6.60;99.90
52415;DHT22;38340;52.964;6.086;2023-02-12T09:15:14;6.70;99.90
52415;DHT22;38340;52.964;6.086;2023-02-12T09:17:39;6.70;99.90
52415;DHT22;38340;52.964;6.086;2023-02-12T09:20:07;6.80;99.90
52415;DHT22;38340;52.964;6.086;2023-02-12T09:22:33;6.80;99.90
52415;DHT22;38340;52.964;6.086;2023-02-12T09:25:04;6.80;99.90
52415;DHT22;38340;52.964;6.086;2023-02-12T09:27:30;7.00;99.90
52415;DHT22;38340;52.964;6.086;2023-02-12T09:29:55;7.00;99.90
52415;DHT22;38340;52.964;6.086;2023-02-12T09:32:21;7.00;99.90
52415;DHT22;38340;52.964;6.086;2023-02-12T09:34:47;7.10;99.90
52415;DHT22;38340;52.964;6.086;2023-02-12T09:37:12;7.10;99.90
52415;DHT22;38340;52.964;6.086;2023-02-12T09:39:38;7.20;99.90
52415;DHT22;38340;52.964;6.086;2023-02-12T09:45:19;7.40;99.90
52415;DHT22;38340;52.964;6.086;2023-02-12T09:48:11;7.40;99.90
52415;DHT22;38340;52.964;6.086;2023-02-12T09:50:47;7.40;99.90
52415;DHT22;38340;52.964;6.086;2023-02-12T09:53:20;7.50;99.90
52415;DHT22;38340;52.964;6.086;2023-02-12T09:55:47;7.50;99.90
52415;DHT22;38340;52.964;6.086;2023-02-12T10:01:20;7.60;99.90
52415;DHT22;38340;52.964;6.086;2023-02-12T10:03:49;7.60;99.90
52415;DHT22;38340;52.964;6.086;2023-02-12T10:06:24;7.70;99.90
52415;DHT22;38340;52.964;6.086;2023-02-12T10:12:02;7.90;99.90
52415;DHT22;38340;52.964;6.086;2023-02-12T10:20:30;7.90;99.90
52415;DHT22;38340;52.964;6.086;2023-02-12T10:25:54;8.10;99.90
52415;DHT22;38340;52.964;6.086;2023-02-12T10:31:03;8.20;99.90
52415;DHT22;38340;52.964;6.086;2023-02-12T10:38:54;8.30;99.90
52415;DHT22;38340;52.964;6.086;2023-02-12T10:41:21;8.50;99.90
52415;DHT22;38340;52.964;6.086;2023-02-12T10:43:47;8.50;99.90
52415;DHT22;38340;52.964;6.086;2023-02-12T10:46:15;8.40;99.90
52415;DHT22;38340;52.964;6.086;2023-02-12T10:48:43;8.50;99.90
52415;DHT22;38340;52.964;6.086;2023-02-12T10:51:50;8.60;99.90
52415;DHT22;38340;52.964;6.086;2023-02-12T10:54:41;8.50;99.90
52415;DHT22;38340;52.964;6.086;2023-02-12T10:57:23;8.50;99.90
52415;DHT22;38340;52.964;6.086;2023-02-12T10:59:53;8.50;99.90
52415;DHT22;38340;52.964;6.086;2023-02-12T11:02:27;8.50;99.90
52415;DHT22;38340;52.964;6.086;2023-02-12T11:04:53;8.60;99.90
52415;DHT22;38340;52.964;6.086;2023-02-12T11:07:20;8.60;99.90
52415;DHT22;38340;52.964;6.086;2023-02-12T11:09:48;8.60;99.90
52415;DHT22;38340;52.964;6.086;2023-02-12T11:14:48;8.70;99.90
52415;DHT22;38340;52.964;6.086;2023-02-12T11:17:26;8.70;99.90
52415;DHT22;38340;52.964;6.086;2023-02-12T11:22:35;8.60;99.90
52415;DHT22;38340;52.964;6.086;2023-02-12T11:25:14;8.70;99.90
52415;DHT22;38340;52.964;6.086;2023-02-12T11:27:40;8.70;99.90
52415;DHT22;38340;52.964;6.086;2023-02-12T11:30:14;8.60;99.90
52415;DHT22;38340;52.964;6.086;2023-02-12T11:32:40;8.70;99.90
52415;DHT22;38340;52.964;6.086;2023-02-12T11:35:13;8.70;99.90
52415;DHT22;38340;52.964;6.086;2023-02-12T11:37:41;8.80;99.90
52415;DHT22;38340;52.964;6.086;2023-02-12T11:40:16;8.80;99.90
52415;DHT22;38340;52.964;6.086;2023-02-12T11:42:48;8.90;99.90
52415;DHT22;38340;52.964;6.086;2023-02-12T11:45:17;8.90;99.90
52415;DHT22;38340;52.964;6.086;2023-02-12T11:47:44;8.90;99.90
52415;DHT22;38340;52.964;6.086;2023-02-12T11:50:27;8.90;99.90
52415;DHT22;38340;52.964;6.086;2023-02-12T11:52:59;9.00;99.90
52415;DHT22;38340;52.964;6.086;2023-02-12T11:55:31;9.10;99.90
52415;DHT22;38340;52.964;6.086;2023-02-12T11:58:20;9.10;99.90
52415;DHT22;38340;52.964;6.086;2023-02-12T12:01:18;9.20;99.90
52415;DHT22;38340;52.964;6.086;2023-02-12T12:06:45;9.30;99.90
52415;DHT22;38340;52.964;6.086;2023-02-12T12:14:40;9.40;99.90
52415;DHT22;38340;52.964;6.086;2023-02-12T12:20:46;9.40;99.90
52415;DHT22;38340;52.964;6.086;2023-02-12T12:23:17;9.40;99.90
52415;DHT22;38340;52.964;6.086;2023-02-12T12:25:54;9.40;99.90
52415;DHT22;38340;52.964;6.086;2023-02-12T12:28:29;9.40;99.90
52415;DHT22;38340;52.964;6.086;2023-02-12T12:33:36;9.40;99.90
52415;DHT22;38340;52.964;6.086;2023-02-12T12:41:18;9.30;99.90
52415;DHT22;38340;52.964;6.086;2023-02-12T12:46:47;9.20;99.90
52415;DHT22;38340;52.964;6.086;2023-02-12T12:52:31;9.20;99.90
52415;DHT22;38340;52.964;6.086;2023-02-12T13:04:11;9.20;99.90
52415;DHT22;38340;52.964;6.086;2023-02-12T13:12:30;9.20;91.30
52415;DHT22;38340;52.964;6.086;2023-02-12T13:17:38;9.30;99.90
52415;DHT22;38340;52.964;6.086;2023-02-12T13:25:34;9.30;99.90
52415;DHT22;38340;52.964;6.086;2023-02-12T13:28:02;9.30;99.90
52415;DHT22;38340;52.964;6.086;2023-02-12T13:30:37;9.20;99.90
52415;DHT22;38340;52.964;6.086;2023-02-12T13:33:19;9.20;99.90
52415;DHT22;38340;52.964;6.086;2023-02-12T13:35:48;9.10;34.60
52415;DHT22;38340;52.964;6.086;2023-02-12T13:38:22;9.10;99.90
52415;DHT22;38340;52.964;6.086;2023-02-12T13:40:57;9.10;99.90
52415;DHT22;38340;52.964;6.086;2023-02-12T13:52:36;9.10;99.90
52415;DHT22;38340;52.964;6.086;2023-02-12T13:57:42;9.00;36.00
52415;DHT22;38340;52.964;6.086;2023-02-12T14:03:11;9.10;58.10
52415;DHT22;38340;52.964;6.086;2023-02-12T14:05:38;9.10;99.90
52415;DHT22;38340;52.964;6.086;2023-02-12T14:08:04;9.00;99.90
52415;DHT22;38340;52.964;6.086;2023-02-12T14:10:34;9.00;1.00
52415;DHT22;38340;52.964;6.086;2023-02-12T14:13:26;8.90;1.00
52415;DHT22;38340;52.964;6.086;2023-02-12T14:16:18;8.90;1.00
52415;DHT22;38340;52.964;6.086;2023-02-12T14:18:44;8.90;1.00
52415;DHT22;38340;52.964;6.086;2023-02-12T14:23:40;8.90;1.00
52415;DHT22;38340;52.964;6.086;2023-02-12T14:26:17;8.90;99.90
52415;DHT22;38340;52.964;6.086;2023-02-12T14:28:50;8.90;1.00
52415;DHT22;38340;52.964;6.086;2023-02-12T14:33:50;8.90;1.00
52415;DHT22;38340;52.964;6.086;2023-02-12T14:36:35;8.90;1.00
52415;DHT22;38340;52.964;6.086;2023-02-12T14:39:27;8.80;1.00
52415;DHT22;38340;52.964;6.086;2023-02-12T14:41:55;8.80;1.00
52415;DHT22;38340;52.964;6.086;2023-02-12T14:44:48;8.80;81.30
52415;DHT22;38340;52.964;6.086;2023-02-12T14:50:00;8.70;1.00
52415;DHT22;38340;52.964;6.086;2023-02-12T14:52:32;8.70;1.00
52415;DHT22;38340;52.964;6.086;2023-02-12T14:55:04;8.60;45.60
52415;DHT22;38340;52.964;6.086;2023-02-12T14:57:34;8.50;1.00
52415;DHT22;38340;52.964;6.086;2023-02-12T15:02:44;8.50;99.90
52415;DHT22;38340;52.964;6.086;2023-02-12T15:05:22;8.50;99.90
52415;DHT22;38340;52.964;6.086;2023-02-12T15:07:53;8.40;99.90
52415;DHT22;38340;52.964;6.086;2023-02-12T15:10:33;8.40;99.90
52415;DHT22;38340;52.964;6.086;2023-02-12T15:15:31;8.40;99.90
52415;DHT22;38340;52.964;6.086;2023-02-12T15:23:35;8.40;99.90
52415;DHT22;38340;52.964;6.086;2023-02-12T15:26:03;8.40;99.90
52415;DHT22;38340;52.964;6.086;2023-02-12T15:28:31;8.40;99.90
52415;DHT22;38340;52.964;6.086;2023-02-12T15:31:00;8.40;99.90
52415;DHT22;38340;52.964;6.086;2023-02-12T15:33:28;8.40;99.90
52415;DHT22;38340;52.964;6.086;2023-02-12T15:35:56;8.40;99.90
52415;DHT22;38340;52.964;6.086;2023-02-12T15:38:31;8.40;99.90
52415;DHT22;38340;52.964;6.086;2023-02-12T15:40:59;8.40;99.90
52415;DHT22;38340;52.964;6.086;2023-02-12T15:43:28;8.30;1.00
52415;DHT22;38340;52.964;6.086;2023-02-12T15:45:56;8.40;1.00
52415;DHT22;38340;52.964;6.086;2023-02-12T15:48:29;8.30;1.00
52415;DHT22;38340;52.964;6.086;2023-02-12T15:53:43;8.30;1.00
52415;DHT22;38340;52.964;6.086;2023-02-12T15:56:15;8.20;1.00
52415;DHT22;38340;52.964;6.086;2023-02-12T15:58:46;8.20;1.00
52415;DHT22;38340;52.964;6.086;2023-02-12T16:01:19;8.20;1.00
52415;DHT22;38340;52.964;6.086;2023-02-12T16:03:54;8.20;1.00
52415;DHT22;38340;52.964;6.086;2023-02-12T16:06:21;8.10;1.00
52415;DHT22;38340;52.964;6.086;2023-02-12T16:08:52;8.10;16.50
52415;DHT22;38340;52.964;6.086;2023-02-12T16:11:21;8.10;48.20
52415;DHT22;38340;52.964;6.086;2023-02-12T16:13:51;8.10;94.10
52415;DHT22;38340;52.964;6.086;2023-02-12T16:16:23;8.10;99.90
52415;DHT22;38340;52.964;6.086;2023-02-12T16:21:43;8.00;99.90
52415;DHT22;38340;52.964;6.086;2023-02-12T16:24:31;8.00;99.90
52415;DHT22;38340;52.964;6.086;2023-02-12T16:27:05;8.00;99.90
52415;DHT22;38340;52.964;6.086;2023-02-12T16:29:34;8.00;99.90
52415;DHT22;38340;52.964;6.086;2023-02-12T16:32:01;8.00;99.90
52415;DHT22;38340;52.964;6.086;2023-02-12T16:34:37;8.00;99.90
52415;DHT22;38340;52.964;6.086;2023-02-12T16:37:49;8.00;99.90
52415;DHT22;38340;52.964;6.086;2023-02-12T16:42:23;8.00;99.90
52415;DHT22;38340;52.964;6.086;2023-02-12T16:44:54;8.00;99.90
52415;DHT22;38340;52.964;6.086;2023-02-12T16:47:22;8.00;99.90
52415;DHT22;38340;52.964;6.086;2023-02-12T16:49:55;8.00;99.90
52415;DHT22;38340;52.964;6.086;2023-02-12T16:52:34;8.00;99.90
52415;DHT22;38340;52.964;6.086;2023-02-12T16:55:01;8.00;99.90
52415;DHT22;38340;52.964;6.086;2023-02-12T16:57:27;8.00;99.90
52415;DHT22;38340;52.964;6.086;2023-02-12T16:59:53;7.90;99.90
52415;DHT22;38340;52.964;6.086;2023-02-12T17:02:18;7.90;99.90
52415;DHT22;38340;52.964;6.086;2023-02-12T17:04:44;7.90;99.90
52415;DHT22;38340;52.964;6.086;2023-02-12T17:07:20;7.80;99.90
52415;DHT22;38340;52.964;6.086;2023-02-12T17:09:46;7.80;99.90
52415;DHT22;38340;52.964;6.086;2023-02-12T17:12:11;7.80;99.90
52415;DHT22;38340;52.964;6.086;2023-02-12T17:14:37;7.70;99.90
52415;DHT22;38340;52.964;6.086;2023-02-12T17:17:03;7.70;99.90
52415;DHT22;38340;52.964;6.086;2023-02-12T17:19:28;7.60;99.90
52415;DHT22;38340;52.964;6.086;2023-02-12T17:21:54;7.60;99.90
52415;DHT22;38340;52.964;6.086;2023-02-12T17:24:25;7.60;99.90
52415;DHT22;38340;52.964;6.086;2023-02-12T17:26:52;7.60;99.90
52415;DHT22;38340;52.964;6.086;2023-02-12T17:29:19;7.50;99.90
52415;DHT22;38340;52.964;6.086;2023-02-12T17:31:46;7.50;99.90
52415;DHT22;38340;52.964;6.086;2023-02-12T17:34:12;7.50;99.90
52415;DHT22;38340;52.964;6.086;2023-02-12T17:36:38;7.50;99.90
52415;DHT22;38340;52.964;6.086;2023-02-12T17:39:06;7.60;99.90
52415;DHT22;38340;52.964;6.086;2023-02-12T17:41:32;7.50;99.90
52415;DHT22;38340;52.964;6.086;2023-02-12T17:43:58;7.40;99.90
52415;DHT22;38340;52.964;6.086;2023-02-12T17:46:25;7.40;99.90
52415;DHT22;38340;52.964;6.086;2023-02-12T17:48:52;7.40;99.90
52415;DHT22;38340;52.964;6.086;2023-02-12T17:51:17;7.40;99.90
52415;DHT22;38340;52.964;6.086;2023-02-12T17:53:43;7.40;99.90
52415;DHT22;38340;52.964;6.086;2023-02-12T17:56:14;7.30;99.90
52415;DHT22;38340;52.964;6.086;2023-02-12T17:58:41;7.30;99.90
52415;DHT22;38340;52.964;6.086;2023-02-12T18:01:09;7.20;99.90
52415;DHT22;38340;52.964;6.086;2023-02-12T18:03:35;7.20;99.90
52415;DHT22;38340;52.964;6.086;2023-02-12T18:06:01;7.20;99.90
52415;DHT22;38340;52.964;6.086;2023-02-12T18:08:27;7.20;99.90
52415;DHT22;38340;52.964;6.086;2023-02-12T18:10:53;7.20;99.90
52415;DHT22;38340;52.964;6.086;2023-02-12T18:13:19;7.20;99.90
52415;DHT22;38340;52.964;6.086;2023-02-12T18:15:45;7.20;99.90
52415;DHT22;38340;52.964;6.086;2023-02-12T18:18:11;7.30;99.90
52415;DHT22;38340;52.964;6.086;2023-02-12T18:20:39;7.30;99.90
52415;DHT22;38340;52.964;6.086;2023-02-12T18:23:05;7.30;99.90
52415;DHT22;38340;52.964;6.086;2023-02-12T18:25:33;7.30;99.90
52415;DHT22;38340;52.964;6.086;2023-02-12T18:27:59;7.30;99.90
52415;DHT22;38340;52.964;6.086;2023-02-12T18:30:26;7.20;99.90
52415;DHT22;38340;52.964;6.086;2023-02-12T18:32:52;7.20;99.90
52415;DHT22;38340;52.964;6.086;2023-02-12T18:35:18;7.20;99.90
52415;DHT22;38340;52.964;6.086;2023-02-12T18:37:44;7.20;99.90
52415;DHT22;38340;52.964;6.086;2023-02-12T18:40:11;7.10;99.90
52415;DHT22;38340;52.964;6.086;2023-02-12T18:42:37;7.10;99.90
52415;DHT22;38340;52.964;6.086;2023-02-12T18:45:03;7.10;99.90
52415;DHT22;38340;52.964;6.086;2023-02-12T18:47:29;7.10;99.90
52415;DHT22;38340;52.964;6.086;2023-02-12T18:49:54;7.20;99.90